Impacts METAR Board
IDs:

KMSP - Minneapolis-St Paul, MN, US

Updated at: 2300 UTC 01 Mar 2021
Potential Impact None Slight Moderate High
Time 01/11Z 01/12Z 01/13Z 01/14Z 01/15Z 01/16Z 01/17Z 01/18Z 01/19Z 01/20Z 01/21Z 01/22Z 01/23Z
Temp17 15 14 14 15 16 18 19 22 22 24 24 24
Dewpt13 9 8 6 6 5 2 1 2 -0 1 -3 -0
Altim30.20 30.24 30.29 30.33 30.36 30.38 30.40 30.39 30.39 30.39 30.39 30.37 30.37
VIS6 10 8 10 10 10 10 10 10 10 10 10 10
CIG80 -- -- -- -- -- -- -- -- -- -- -- --
CoverOVCFEWFEWCLRCLRCLRCLRCLRCLRCLRCLRCLRCLR
FltCatVFRVFRVFRVFRVFRVFRVFRVFRVFRVFRVFRVFRVFR
WXBR------------------------
WDir3603501036020200330003100230
WSpd7 9 11 11 12 7 6 3 0 4 7 0 4
WGst-- -- -- -- -- -- -- -- -- -- -- -- --
Raw hourly METARs
KMSP 011053Z 36007KT 6SM BR FEW015 BKN080 OVC095 M08/M11 A3020 RMK AO2 SNE45 SLP240 P0001 T10831106
KMSP 011153Z 35009KT 10SM FEW080 M09/M13 A3024 RMK AO2 SLP257 4/006 60004 70015 T10941128 11061 21100 53027
KMSP 011253Z 01011KT 8SM FEW020 M10/M13 A3029 RMK AO2 SLP274 T11001133
KMSP 011353Z 36011KT 10SM CLR M10/M14 A3033 RMK AO2 SLP287 T11001144
KMSP 011453Z 02012KT 10SM CLR M09/M14 A3036 RMK AO2 SLP297 T10941144 51039
KMSP 011553Z 02007KT 10SM CLR M09/M15 A3038 RMK AO2 SLP305 T10891150
KMSP 011653Z VRB06KT 10SM CLR M08/M17 A3040 RMK AO2 SLP310 T10781167
KMSP 011753Z 33003KT 10SM CLR M07/M17 A3039 RMK AO2 SLP308 4/006 933013 T10721172 11067 21106 50011
KMSP 011853Z 00000KT 10SM CLR M06/M17 A3039 RMK AO2 SLP307 T10561167
KMSP 011953Z VRB04KT 10SM CLR M06/M18 A3039 RMK AO2 SLP306 T10561178
KMSP 012053Z 31007KT 10SM CLR M04/M17 A3039 RMK AO2 SLP306 T10441172 58001
KMSP 012153Z 00000KT 10SM CLR M04/M19 A3037 RMK AO2 SLP300 T10441194
KMSP 012253Z 23004KT 10SM CLR M04/M18 A3037 RMK AO2 SLP299 T10441178



Page loaded:  23:29 UTC  |   03:29 PM Pacific  |   04:29 PM Mountain  |   05:29 PM Central  |   06:29 PM Eastern

 

ADVISORIES

FORECASTS

FORECASTS

OBSERVATIONS

USER TOOLS

ABOUT US